Aeroporto :
LOGIN :

Iscrizione | Disclaimer

   EN    FR    IT 

 










Sommario :    VFR   VFR Marginale   IFR   IFR Intensivo   IFR Molto Intensivo
Visibilità : 
Base nubi : 
>= 8 km
>= 3000ft
5 / 8 km
1000 / 3000 ft
1500m / 5 km
500 / 1000 ft
800 / 1500m
200 / 500 ft
< 800m
< 200 ft
Simboli :   Temporali  Nebbia  Neve Forte  Precipitazioni Forti  Vento > 20 kt
SIGMETs :   Varie  Temporali  Ghiacco  Turbolenza  Onda orograficha  Ceneri Vulcaniche






- Altitudine del aeroporto : 120 ft
- Codice IATA : MME


EGNV - Durham Tees valley

ULTIMO METAR :
  • 271750Z 27014KT 9999 FEW025 04/M02 Q1004

METARs OBSOLETI :
  • 271720Z 27010KT 9999 FEW025 04/M01 Q1004
  • 271650Z 28017G27KT 9999 FEW028 05/M01 Q1003
  • 271620Z 28015KT 9999 FEW022 SCT041 06/M02 Q1003
  • 271550Z 29017KT 9999 FEW025 SCT044 06/M02 Q1002
  • 271520Z 29017G30KT 9999 FEW025 SCT042 06/M02 Q1002

TAF TAF EGNV
Valido dal 27 a 18 ore il 27 a 22 ore UTC


271701Z 2718/2722 28015KT 9999 FEW025
PROB40
TEMPO 2718/2722 27017G27KT
ATIS : +44 9012 018 111



MetMap, La meteo Aeronautica in un colpo d'occhio ! - Copyright ORBIFLY Dicembre 2007 - Disclaimer

ORBIFLY MET'MAP TEAM :

Programmazione e sviluppo : Alexandra Zaïnal
Concezione : Baudouin d'Aumeries
Aiuto per la programmazione : Marc-Olivier Méhu
Supporto tecnico e logistico : Manuel Goepfert
Aiuto per la traduzione : Arnaldo La Scala

Contatto : metmap@orbifly.com




FONTI E CREDITI :

   NOAA